sensor_id;sensor_type;location;lat;lon;timestamp;pressure;altitude;pressure_sealevel;temperature;humidity
71299;BME280;59083;47.974;21.722;2023-01-28T00:01:30;100389.09;;;0.54;100.00
71299;BME280;59083;47.974;21.722;2023-01-28T00:04:31;100386.00;;;0.49;100.00
71299;BME280;59083;47.974;21.722;2023-01-28T00:07:33;100393.25;;;0.56;100.00
71299;BME280;59083;47.974;21.722;2023-01-28T00:10:36;100387.59;;;0.72;100.00
71299;BME280;59083;47.974;21.722;2023-01-28T00:13:39;100399.06;;;0.60;100.00
71299;BME280;59083;47.974;21.722;2023-01-28T00:16:41;100398.09;;;0.72;100.00
71299;BME280;59083;47.974;21.722;2023-01-28T00:19:42;100398.94;;;0.72;100.00
71299;BME280;59083;47.974;21.722;2023-01-28T00:22:48;100405.63;;;0.65;100.00
71299;BME280;59083;47.974;21.722;2023-01-28T00:25:49;100402.63;;;0.70;100.00
71299;BME280;59083;47.974;21.722;2023-01-28T00:28:50;100400.72;;;0.72;100.00
71299;BME280;59083;47.974;21.722;2023-01-28T00:31:52;100397.81;;;0.75;100.00
71299;BME280;59083;47.974;21.722;2023-01-28T00:34:53;100406.16;;;0.80;100.00
71299;BME280;59083;47.974;21.722;2023-01-28T00:37:54;100401.94;;;0.68;100.00
71299;BME280;59083;47.974;21.722;2023-01-28T00:41:09;100406.69;;;0.74;100.00
71299;BME280;59083;47.974;21.722;2023-01-28T00:44:10;100406.69;;;0.63;100.00
71299;BME280;59083;47.974;21.722;2023-01-28T00:47:11;100406.41;;;0.77;100.00
71299;BME280;59083;47.974;21.722;2023-01-28T00:50:13;100417.75;;;0.77;100.00
71299;BME280;59083;47.974;21.722;2023-01-28T00:53:15;100406.28;;;0.78;100.00
71299;BME280;59083;47.974;21.722;2023-01-28T00:56:16;100410.91;;;0.86;100.00
71299;BME280;59083;47.974;21.722;2023-01-28T00:59:19;100413.94;;;0.70;100.00
71299;BME280;59083;47.974;21.722;2023-01-28T01:02:21;100412.16;;;0.71;100.00
71299;BME280;59083;47.974;21.722;2023-01-28T01:05:23;100421.81;;;0.70;100.00
71299;BME280;59083;47.974;21.722;2023-01-28T01:08:24;100431.47;;;0.70;100.00
71299;BME280;59083;47.974;21.722;2023-01-28T01:11:35;100412.19;;;0.60;100.00
71299;BME280;59083;47.974;21.722;2023-01-28T01:14:37;100415.72;;;0.70;100.00
71299;BME280;59083;47.974;21.722;2023-01-28T01:17:43;100422.41;;;0.74;100.00
71299;BME280;59083;47.974;21.722;2023-01-28T01:20:44;100423.37;;;0.73;100.00
71299;BME280;59083;47.974;21.722;2023-01-28T01:23:46;100415.00;;;0.79;100.00
71299;BME280;59083;47.974;21.722;2023-01-28T01:26:47;100421.19;;;0.78;100.00
71299;BME280;59083;47.974;21.722;2023-01-28T01:29:49;100415.72;;;0.70;100.00
71299;BME280;59083;47.974;21.722;2023-01-28T01:32:50;100419.66;;;0.75;100.00
71299;BME280;59083;47.974;21.722;2023-01-28T01:35:52;100403.41;;;0.81;100.00
71299;BME280;59083;47.974;21.722;2023-01-28T01:38:54;100420.41;;;0.66;100.00
71299;BME280;59083;47.974;21.722;2023-01-28T01:41:56;100419.25;;;0.80;100.00
71299;BME280;59083;47.974;21.722;2023-01-28T01:48:27;100417.97;;;0.74;100.00
71299;BME280;59083;47.974;21.722;2023-01-28T01:51:33;100430.47;;;0.82;100.00
71299;BME280;59083;47.974;21.722;2023-01-28T01:54:37;100430.25;;;0.85;100.00
71299;BME280;59083;47.974;21.722;2023-01-28T01:57:41;100428.47;;;0.74;100.00
71299;BME280;59083;47.974;21.722;2023-01-28T02:00:43;100423.84;;;0.67;100.00
71299;BME280;59083;47.974;21.722;2023-01-28T02:03:52;100425.25;;;0.71;100.00
71299;BME280;59083;47.974;21.722;2023-01-28T02:06:56;100419.97;;;0.82;100.00
71299;BME280;59083;47.974;21.722;2023-01-28T02:09:59;100407.66;;;0.62;100.00
71299;BME280;59083;47.974;21.722;2023-01-28T02:13:00;100418.16;;;0.62;100.00
71299;BME280;59083;47.974;21.722;2023-01-28T02:16:02;100415.16;;;0.66;100.00
71299;BME280;59083;47.974;21.722;2023-01-28T02:19:05;100420.53;;;0.54;100.00
71299;BME280;59083;47.974;21.722;2023-01-28T02:32:18;100412.19;;;0.60;100.00
71299;BME280;59083;47.974;21.722;2023-01-28T02:38:28;100408.75;;;0.48;100.00
71299;BME280;59083;47.974;21.722;2023-01-28T02:41:37;100418.16;;;0.62;100.00
71299;BME280;59083;47.974;21.722;2023-01-28T02:44:40;100416.97;;;0.55;100.00
71299;BME280;59083;47.974;21.722;2023-01-28T02:47:42;100421.72;;;0.61;100.00
71299;BME280;59083;47.974;21.722;2023-01-28T02:51:23;100420.06;;;0.60;100.00
71299;BME280;59083;47.974;21.722;2023-01-28T03:00:53;100419.91;;;0.72;100.00
71299;BME280;59083;47.974;21.722;2023-01-28T03:04:01;100419.41;;;0.78;100.00
71299;BME280;59083;47.974;21.722;2023-01-28T03:07:06;100422.41;;;0.74;100.00
71299;BME280;59083;47.974;21.722;2023-01-28T03:10:11;100423.59;;;0.70;100.00
71299;BME280;59083;47.974;21.722;2023-01-28T03:13:17;100423.59;;;0.70;100.00
71299;BME280;59083;47.974;21.722;2023-01-28T03:16:36;100417.88;;;0.65;100.00
71299;BME280;59083;47.974;21.722;2023-01-28T03:19:57;100430.75;;;0.79;100.00
71299;BME280;59083;47.974;21.722;2023-01-28T03:23:27;100425.16;;;0.72;100.00
71299;BME280;59083;47.974;21.722;2023-01-28T03:27:00;100426.94;;;0.72;100.00
71299;BME280;59083;47.974;21.722;2023-01-28T03:30:42;100430.41;;;0.61;100.00
71299;BME280;59083;47.974;21.722;2023-01-28T03:34:04;100423.81;;;0.78;100.00
71299;BME280;59083;47.974;21.722;2023-01-28T03:37:26;100425.28;;;0.60;100.00
71299;BME280;59083;47.974;21.722;2023-01-28T03:40:30;100415.75;;;0.59;100.00
71299;BME280;59083;47.974;21.722;2023-01-28T03:43:31;100419.59;;;0.55;100.00
71299;BME280;59083;47.974;21.722;2023-01-28T03:46:33;100431.47;;;0.70;100.00
71299;BME280;59083;47.974;21.722;2023-01-28T03:49:40;100419.56;;;0.66;100.00
71299;BME280;59083;47.974;21.722;2023-01-28T03:52:41;100430.88;;;0.66;100.00
71299;BME280;59083;47.974;21.722;2023-01-28T03:55:45;100421.47;;;0.64;100.00
71299;BME280;59083;47.974;21.722;2023-01-28T03:58:46;100428.16;;;0.68;100.00
71299;BME280;59083;47.974;21.722;2023-01-28T04:01:57;100433.16;;;0.60;100.00
71299;BME280;59083;47.974;21.722;2023-01-28T04:04:58;100433.13;;;0.71;100.00
71299;BME280;59083;47.974;21.722;2023-01-28T04:08:01;100423.59;;;0.70;100.00
71299;BME280;59083;47.974;21.722;2023-01-28T04:11:02;100431.56;;;0.79;100.00
71299;BME280;59083;47.974;21.722;2023-01-28T04:14:17;100436.28;;;0.86;100.00
71299;BME280;59083;47.974;21.722;2023-01-28T04:17:18;100440.72;;;0.85;100.00
71299;BME280;59083;47.974;21.722;2023-01-28T04:20:20;100440.06;;;0.72;100.00
71299;BME280;59083;47.974;21.722;2023-01-28T04:23:21;100440.63;;;0.75;100.00
71299;BME280;59083;47.974;21.722;2023-01-28T04:26:23;100441.72;;;0.73;100.00
71299;BME280;59083;47.974;21.722;2023-01-28T04:29:24;100451.47;;;0.82;100.00
71299;BME280;59083;47.974;21.722;2023-01-28T04:32:27;100442.09;;;0.68;100.00
71299;BME280;59083;47.974;21.722;2023-01-28T04:35:28;100437.88;;;0.77;100.00
71299;BME280;59083;47.974;21.722;2023-01-28T04:38:29;100446.13;;;0.72;100.00
71299;BME280;59083;47.974;21.722;2023-01-28T04:41:31;100452.44;;;0.70;100.00
71299;BME280;59083;47.974;21.722;2023-01-28T04:44:33;100457.09;;;0.66;100.00
71299;BME280;59083;47.974;21.722;2023-01-28T04:47:35;100457.47;;;0.62;100.00
71299;BME280;59083;47.974;21.722;2023-01-28T04:50:36;100459.62;;;0.68;100.00
71299;BME280;59083;47.974;21.722;2023-01-28T04:53:39;100468.44;;;0.67;100.00
71299;BME280;59083;47.974;21.722;2023-01-28T04:56:40;100467.25;;;0.60;100.00
71299;BME280;59083;47.974;21.722;2023-01-28T04:59:41;100466.75;;;0.66;100.00
71299;BME280;59083;47.974;21.722;2023-01-28T05:02:43;100466.28;;;0.61;100.00
71299;BME280;59083;47.974;21.722;2023-01-28T05:05:45;100468.91;;;0.61;100.00
71299;BME280;59083;47.974;21.722;2023-01-28T05:08:46;100482.88;;;0.61;100.00
71299;BME280;59083;47.974;21.722;2023-01-28T05:11:48;100486.53;;;0.59;100.00
71299;BME280;59083;47.974;21.722;2023-01-28T05:14:49;100486.31;;;0.62;100.00
71299;BME280;59083;47.974;21.722;2023-01-28T05:17:53;100486.66;;;0.68;100.00
71299;BME280;59083;47.974;21.722;2023-01-28T05:20:56;100492.22;;;0.75;100.00
71299;BME280;59083;47.974;21.722;2023-01-28T05:23:58;100486.97;;;0.86;100.00
71299;BME280;59083;47.974;21.722;2023-01-28T05:26:59;100485.09;;;0.77;100.00
71299;BME280;59083;47.974;21.722;2023-01-28T05:30:00;100485.09;;;0.77;100.00
71299;BME280;59083;47.974;21.722;2023-01-28T05:33:02;100485.66;;;0.80;100.00
71299;BME280;59083;47.974;21.722;2023-01-28T05:36:04;100486.50;;;0.81;100.00
71299;BME280;59083;47.974;21.722;2023-01-28T05:39:06;100490.06;;;0.80;100.00
71299;BME280;59083;47.974;21.722;2023-01-28T05:42:08;100488.75;;;0.86;100.00
71299;BME280;59083;47.974;21.722;2023-01-28T05:45:11;100497.13;;;0.91;100.00
71299;BME280;59083;47.974;21.722;2023-01-28T05:48:13;100484.94;;;0.90;100.00
71299;BME280;59083;47.974;21.722;2023-01-28T05:51:14;100494.59;;;0.89;100.00
71299;BME280;59083;47.974;21.722;2023-01-28T05:54:16;100494.59;;;0.89;100.00
71299;BME280;59083;47.974;21.722;2023-01-28T05:57:17;100501.03;;;0.96;100.00
71299;BME280;59083;47.974;21.722;2023-01-28T06:00:18;100506.03;;;0.99;99.84
71299;BME280;59083;47.974;21.722;2023-01-28T06:03:20;100510.78;;;1.05;99.57
71299;BME280;59083;47.974;21.722;2023-01-28T06:06:21;100523.44;;;1.00;99.14
71299;BME280;59083;47.974;21.722;2023-01-28T06:09:23;100514.63;;;1.01;98.95
71299;BME280;59083;47.974;21.722;2023-01-28T06:12:24;100510.78;;;1.05;98.01
71299;BME280;59083;47.974;21.722;2023-01-28T06:15:27;100521.19;;;0.96;97.89
71299;BME280;59083;47.974;21.722;2023-01-28T06:18:29;100521.31;;;0.94;98.44
71299;BME280;59083;47.974;21.722;2023-01-28T06:21:30;100521.53;;;1.02;97.42
71299;BME280;59083;47.974;21.722;2023-01-28T06:24:31;100513.44;;;0.94;97.64
71299;BME280;59083;47.974;21.722;2023-01-28T06:27:33;100530.34;;;1.01;97.16
71299;BME280;59083;47.974;21.722;2023-01-28T06:30:34;100531.41;;;0.99;96.88
71299;BME280;59083;47.974;21.722;2023-01-28T06:33:35;100543.94;;;1.06;97.03
71299;BME280;59083;47.974;21.722;2023-01-28T06:36:36;100536.97;;;1.16;96.83
71299;BME280;59083;47.974;21.722;2023-01-28T06:39:38;100538.16;;;1.23;96.22
71299;BME280;59083;47.974;21.722;2023-01-28T06:42:39;100539.38;;;1.19;95.84
71299;BME280;59083;47.974;21.722;2023-01-28T06:45:40;100539.97;;;1.23;95.18
71299;BME280;59083;47.974;21.722;2023-01-28T06:48:41;100537.72;;;1.18;95.54
71299;BME280;59083;47.974;21.722;2023-01-28T06:51:43;100543.19;;;1.15;95.01
71299;BME280;59083;47.974;21.722;2023-01-28T06:54:44;100542.19;;;1.28;94.42
71299;BME280;59083;47.974;21.722;2023-01-28T06:57:45;100546.75;;;1.14;94.49
71299;BME280;59083;47.974;21.722;2023-01-28T07:00:46;100548.50;;;1.36;94.00
71299;BME280;59083;47.974;21.722;2023-01-28T07:03:48;100563.00;;;1.19;93.99
71299;BME280;59083;47.974;21.722;2023-01-28T07:06:49;100562.97;;;1.31;93.99
71299;BME280;59083;47.974;21.722;2023-01-28T07:09:50;100561.03;;;1.33;92.74
71299;BME280;59083;47.974;21.722;2023-01-28T07:12:51;100563.63;;;1.44;93.05
71299;BME280;59083;47.974;21.722;2023-01-28T07:15:52;100555.91;;;1.42;92.39
71299;BME280;59083;47.974;21.722;2023-01-28T07:18:54;100566.06;;;1.36;92.49
71299;BME280;59083;47.974;21.722;2023-01-28T07:21:55;100564.78;;;1.51;92.54
71299;BME280;59083;47.974;21.722;2023-01-28T07:24:58;100571.94;;;1.49;91.88
71299;BME280;59083;47.974;21.722;2023-01-28T07:28:01;100575.87;;;1.54;91.61
71299;BME280;59083;47.974;21.722;2023-01-28T07:31:02;100578.34;;;1.67;91.30
71299;BME280;59083;47.974;21.722;2023-01-28T07:34:03;100579.84;;;1.49;91.31
71299;BME280;59083;47.974;21.722;2023-01-28T07:37:04;100581.81;;;1.67;91.28
71299;BME280;59083;47.974;21.722;2023-01-28T07:40:07;100582.84;;;1.76;90.71
71299;BME280;59083;47.974;21.722;2023-01-28T07:43:08;100580.72;;;1.70;89.84
71299;BME280;59083;47.974;21.722;2023-01-28T07:46:10;100578.56;;;1.75;89.54
71299;BME280;59083;47.974;21.722;2023-01-28T07:49:11;100595.28;;;1.74;88.40
71299;BME280;59083;47.974;21.722;2023-01-28T07:52:12;100588.91;;;1.88;89.62
71299;BME280;59083;47.974;21.722;2023-01-28T07:55:14;100590.81;;;1.86;88.56
71299;BME280;59083;47.974;21.722;2023-01-28T07:58:16;100584.22;;;1.91;88.67
71299;BME280;59083;47.974;21.722;2023-01-28T08:01:17;100584.22;;;1.91;88.83
71299;BME280;59083;47.974;21.722;2023-01-28T08:04:19;100590.88;;;1.95;88.22
71299;BME280;59083;47.974;21.722;2023-01-28T08:07:20;100598.12;;;2.03;88.52
71299;BME280;59083;47.974;21.722;2023-01-28T08:10:22;100593.37;;;2.18;87.74
71299;BME280;59083;47.974;21.722;2023-01-28T08:13:23;100585.47;;;2.18;87.28
71299;BME280;59083;47.974;21.722;2023-01-28T08:16:24;100590.00;;;2.27;87.41
71299;BME280;59083;47.974;21.722;2023-01-28T08:19:26;100592.47;;;2.28;87.02
71299;BME280;59083;47.974;21.722;2023-01-28T08:22:27;100595.03;;;2.39;87.78
71299;BME280;59083;47.974;21.722;2023-01-28T08:25:28;100605.50;;;2.30;86.63
71299;BME280;59083;47.974;21.722;2023-01-28T08:28:29;100598.31;;;2.32;86.29
71299;BME280;59083;47.974;21.722;2023-01-28T08:31:31;100602.78;;;2.41;86.42
71299;BME280;59083;47.974;21.722;2023-01-28T08:34:33;100612.88;;;2.36;86.47
71299;BME280;59083;47.974;21.722;2023-01-28T08:37:34;100601.22;;;2.59;85.89
71299;BME280;59083;47.974;21.722;2023-01-28T08:40:35;100605.69;;;2.68;85.48
71299;BME280;59083;47.974;21.722;2023-01-28T08:43:36;100613.06;;;2.44;86.06
71299;BME280;59083;47.974;21.722;2023-01-28T08:46:38;100616.75;;;2.62;85.95
71299;BME280;59083;47.974;21.722;2023-01-28T08:49:39;100608.50;;;2.76;86.20
71299;BME280;59083;47.974;21.722;2023-01-28T08:52:40;100619.56;;;2.70;85.69
71299;BME280;59083;47.974;21.722;2023-01-28T08:55:44;100619.06;;;2.86;85.95
71299;BME280;59083;47.974;21.722;2023-01-28T08:58:46;100620.53;;;2.69;85.73
71299;BME280;59083;47.974;21.722;2023-01-28T09:01:47;100630.59;;;2.64;85.45
71299;BME280;59083;47.974;21.722;2023-01-28T09:04:49;100636.75;;;2.74;85.78
71299;BME280;59083;47.974;21.722;2023-01-28T09:07:50;100639.91;;;2.99;85.20
71299;BME280;59083;47.974;21.722;2023-01-28T09:10:58;100637.09;;;2.90;84.56
71299;BME280;59083;47.974;21.722;2023-01-28T09:14:00;100642.19;;;3.13;84.02
71299;BME280;59083;47.974;21.722;2023-01-28T09:17:02;100638.31;;;3.17;83.71
71299;BME280;59083;47.974;21.722;2023-01-28T09:20:05;100629.47;;;3.18;83.50
71299;BME280;59083;47.974;21.722;2023-01-28T09:23:06;100639.72;;;3.21;83.60
71299;BME280;59083;47.974;21.722;2023-01-28T09:26:08;100637.34;;;3.18;83.73
71299;BME280;59083;47.974;21.722;2023-01-28T09:29:09;100642.62;;;3.18;82.48
71299;BME280;59083;47.974;21.722;2023-01-28T09:32:11;100647.69;;;3.40;82.47
71299;BME280;59083;47.974;21.722;2023-01-28T09:35:12;100646.38;;;3.25;82.92
71299;BME280;59083;47.974;21.722;2023-01-28T09:38:15;100648.09;;;3.36;81.93
71299;BME280;59083;47.974;21.722;2023-01-28T09:41:26;100642.66;;;3.37;82.65
71299;BME280;59083;47.974;21.722;2023-01-28T09:47:59;100637.28;;;3.48;81.58
71299;BME280;59083;47.974;21.722;2023-01-28T09:51:01;100630.31;;;3.38;81.77
71299;BME280;59083;47.974;21.722;2023-01-28T09:57:22;100628.69;;;3.46;80.72
71299;BME280;59083;47.974;21.722;2023-01-28T10:00:34;100630.37;;;3.57;81.40
71299;BME280;59083;47.974;21.722;2023-01-28T10:03:40;100624.22;;;3.37;81.44
71299;BME280;59083;47.974;21.722;2023-01-28T10:10:12;100632.63;;;3.81;80.74
71299;BME280;59083;47.974;21.722;2023-01-28T10:16:34;100632.88;;;3.78;79.57
71299;BME280;59083;47.974;21.722;2023-01-28T10:19:42;100632.03;;;3.67;79.16
71299;BME280;59083;47.974;21.722;2023-01-28T10:26:23;100635.09;;;4.30;78.47
71299;BME280;59083;47.974;21.722;2023-01-28T10:29:31;100626.50;;;3.99;78.60
71299;BME280;59083;47.974;21.722;2023-01-28T10:32:35;100635.41;;;3.98;78.87
71299;BME280;59083;47.974;21.722;2023-01-28T10:35:40;100623.72;;;4.01;77.67
71299;BME280;59083;47.974;21.722;2023-01-28T10:38:41;100623.19;;;4.07;78.02
71299;BME280;59083;47.974;21.722;2023-01-28T10:41:43;100624.28;;;3.95;77.74
71299;BME280;59083;47.974;21.722;2023-01-28T10:44:44;100629.00;;;3.72;78.15
71299;BME280;59083;47.974;21.722;2023-01-28T10:50:56;100625.94;;;3.77;78.09
71299;BME280;59083;47.974;21.722;2023-01-28T10:54:01;100631.50;;;4.02;76.91
71299;BME280;59083;47.974;21.722;2023-01-28T10:57:06;100629.41;;;3.67;77.82
71299;BME280;59083;47.974;21.722;2023-01-28T11:00:22;100626.31;;;3.43;78.20
71299;BME280;59083;47.974;21.722;2023-01-28T11:03:24;100619.72;;;3.68;78.28
71299;BME280;59083;47.974;21.722;2023-01-28T11:06:30;100626.31;;;3.43;78.90
71299;BME280;59083;47.974;21.722;2023-01-28T11:09:34;100622.91;;;3.91;78.54
71299;BME280;59083;47.974;21.722;2023-01-28T11:12:35;100626.81;;;3.87;78.11
71299;BME280;59083;47.974;21.722;2023-01-28T11:15:45;100629.28;;;4.17;77.88
71299;BME280;59083;47.974;21.722;2023-01-28T11:18:51;100616.66;;;4.11;77.59
71299;BME280;59083;47.974;21.722;2023-01-28T11:21:55;100626.78;;;4.06;77.57
71299;BME280;59083;47.974;21.722;2023-01-28T11:24:58;100628.75;;;4.04;78.27
71299;BME280;59083;47.974;21.722;2023-01-28T11:28:02;100617.91;;;3.88;78.09
71299;BME280;59083;47.974;21.722;2023-01-28T11:31:05;100625.41;;;3.92;78.42
71299;BME280;59083;47.974;21.722;2023-01-28T11:34:07;100619.56;;;3.89;78.62
71299;BME280;59083;47.974;21.722;2023-01-28T11:37:13;100621.53;;;3.87;78.82
71299;BME280;59083;47.974;21.722;2023-01-28T11:40:18;100613.75;;;3.76;80.17
71299;BME280;59083;47.974;21.722;2023-01-28T11:43:25;100613.75;;;3.76;80.05
71299;BME280;59083;47.974;21.722;2023-01-28T12:00:39;100616.78;;;4.19;78.06
71299;BME280;59083;47.974;21.722;2023-01-28T12:04:20;100616.22;;;4.25;77.56
71299;BME280;59083;47.974;21.722;2023-01-28T12:07:34;100616.53;;;4.03;78.04
71299;BME280;59083;47.974;21.722;2023-01-28T12:31:49;100632.34;;;4.03;78.31
71299;BME280;59083;47.974;21.722;2023-01-28T12:35:21;100634.56;;;3.98;78.57
71299;BME280;59083;47.974;21.722;2023-01-28T12:38:27;100636.22;;;3.99;79.29
71299;BME280;59083;47.974;21.722;2023-01-28T12:41:40;100635.94;;;3.83;79.00
71299;BME280;59083;47.974;21.722;2023-01-28T12:44:49;100635.41;;;3.98;79.25
71299;BME280;59083;47.974;21.722;2023-01-28T12:48:02;100639.97;;;4.06;78.86
71299;BME280;59083;47.974;21.722;2023-01-28T12:51:12;100639.00;;;4.07;79.66
71299;BME280;59083;47.974;21.722;2023-01-28T12:54:23;100631.53;;;3.93;79.19
71299;BME280;59083;47.974;21.722;2023-01-28T12:57:30;100634.84;;;3.76;79.72
71299;BME280;59083;47.974;21.722;2023-01-28T13:00:33;100644.81;;;3.82;78.78
71299;BME280;59083;47.974;21.722;2023-01-28T13:04:00;100647.31;;;3.64;79.48
71299;BME280;59083;47.974;21.722;2023-01-28T13:07:12;100650.37;;;3.79;79.43
71299;BME280;59083;47.974;21.722;2023-01-28T13:10:21;100652.28;;;3.77;79.31
71299;BME280;59083;47.974;21.722;2023-01-28T13:13:37;100649.53;;;3.68;79.18
71299;BME280;59083;47.974;21.722;2023-01-28T13:16:39;100657.31;;;3.70;79.26
71299;BME280;59083;47.974;21.722;2023-01-28T13:19:41;100646.97;;;3.48;80.23
71299;BME280;59083;47.974;21.722;2023-01-28T13:22:43;100664.19;;;3.52;80.04
71299;BME280;59083;47.974;21.722;2023-01-28T13:25:53;100649.50;;;3.59;79.76
71299;BME280;59083;47.974;21.722;2023-01-28T13:29:14;100661.28;;;3.45;79.91
71299;BME280;59083;47.974;21.722;2023-01-28T13:32:27;100654.50;;;3.52;79.75
71299;BME280;59083;47.974;21.722;2023-01-28T13:38:32;100667.81;;;3.51;79.61
71299;BME280;59083;47.974;21.722;2023-01-28T13:41:44;100668.88;;;3.48;79.38
71299;BME280;59083;47.974;21.722;2023-01-28T13:44:46;100660.87;;;3.59;79.67
71299;BME280;59083;47.974;21.722;2023-01-28T13:47:51;100665.47;;;3.57;79.08
71299;BME280;59083;47.974;21.722;2023-01-28T13:50:54;100676.12;;;3.65;78.81
71299;BME280;59083;47.974;21.722;2023-01-28T13:54:15;100681.94;;;3.50;78.80
71299;BME280;59083;47.974;21.722;2023-01-28T14:05:03;100677.78;;;3.47;79.50
71299;BME280;59083;47.974;21.722;2023-01-28T14:08:19;100693.31;;;3.50;79.11
71299;BME280;59083;47.974;21.722;2023-01-28T14:18:17;100685.97;;;3.14;80.13
71299;BME280;59083;47.974;21.722;2023-01-28T14:21:21;100692.97;;;3.34;80.29
71299;BME280;59083;47.974;21.722;2023-01-28T14:24:23;100685.19;;;3.23;80.40
71299;BME280;59083;47.974;21.722;2023-01-28T14:27:35;100690.44;;;3.23;80.00
71299;BME280;59083;47.974;21.722;2023-01-28T14:30:53;100697.44;;;3.43;79.96
71299;BME280;59083;47.974;21.722;2023-01-28T14:34:05;100694.66;;;3.35;79.88
71299;BME280;59083;47.974;21.722;2023-01-28T14:37:09;100699.31;;;3.22;80.22
71299;BME280;59083;47.974;21.722;2023-01-28T14:40:14;100696.16;;;3.28;79.56
71299;BME280;59083;47.974;21.722;2023-01-28T14:43:19;100698.75;;;3.18;79.50
71299;BME280;59083;47.974;21.722;2023-01-28T14:46:51;100705.59;;;3.00;79.34
71299;BME280;59083;47.974;21.722;2023-01-28T14:50:27;100716.69;;;3.04;79.73
71299;BME280;59083;47.974;21.722;2023-01-28T14:57:20;100720.44;;;2.80;79.53
71299;BME280;59083;47.974;21.722;2023-01-28T15:00:25;100732.09;;;2.87;79.63
71299;BME280;59083;47.974;21.722;2023-01-28T15:03:28;100732.94;;;2.88;79.87
71299;BME280;59083;47.974;21.722;2023-01-28T15:06:33;100735.25;;;2.81;79.90
71299;BME280;59083;47.974;21.722;2023-01-28T15:09:35;100739.41;;;2.63;80.18
71299;BME280;59083;47.974;21.722;2023-01-28T15:12:38;100735.31;;;2.70;79.84
71299;BME280;59083;47.974;21.722;2023-01-28T15:15:45;100744.00;;;2.61;80.47
71299;BME280;59083;47.974;21.722;2023-01-28T15:18:48;100754.06;;;2.56;80.87
71299;BME280;59083;47.974;21.722;2023-01-28T15:21:54;100750.78;;;2.64;80.63
71299;BME280;59083;47.974;21.722;2023-01-28T15:24:56;100758.28;;;2.68;80.74
71299;BME280;59083;47.974;21.722;2023-01-28T15:27:59;100768.81;;;2.68;80.38
71299;BME280;59083;47.974;21.722;2023-01-28T15:31:01;100763.75;;;2.56;80.84
71299;BME280;59083;47.974;21.722;2023-01-28T15:34:17;100769.84;;;2.56;80.62
71299;BME280;59083;47.974;21.722;2023-01-28T15:37:19;100763.47;;;2.59;80.70
71299;BME280;59083;47.974;21.722;2023-01-28T15:40:22;100773.00;;;2.71;80.21
71299;BME280;59083;47.974;21.722;2023-01-28T15:43:29;100769.47;;;2.61;80.46
71299;BME280;59083;47.974;21.722;2023-01-28T15:46:31;100767.25;;;2.45;81.01
71299;BME280;59083;47.974;21.722;2023-01-28T15:49:35;100782.28;;;2.54;80.27
71299;BME280;59083;47.974;21.722;2023-01-28T15:52:40;100782.37;;;2.32;81.28
71299;BME280;59083;47.974;21.722;2023-01-28T15:55:45;100782.59;;;2.29;81.08
71299;BME280;59083;47.974;21.722;2023-01-28T15:58:46;100798.19;;;2.21;81.38
71299;BME280;59083;47.974;21.722;2023-01-28T16:01:47;100794.75;;;2.09;81.65
71299;BME280;59083;47.974;21.722;2023-01-28T16:05:00;100796.28;;;2.12;81.69
71299;BME280;59083;47.974;21.722;2023-01-28T16:08:03;100805.59;;;2.16;81.28
71299;BME280;59083;47.974;21.722;2023-01-28T16:11:08;100807.28;;;2.05;81.75
71299;BME280;59083;47.974;21.722;2023-01-28T16:14:24;100804.56;;;1.85;82.08
71299;BME280;59083;47.974;21.722;2023-01-28T16:17:30;100812.34;;;1.86;82.21
71299;BME280;59083;47.974;21.722;2023-01-28T16:20:35;100787.38;;;1.81;82.66
71299;BME280;59083;47.974;21.722;2023-01-28T16:23:38;100821.44;;;1.82;82.31
71299;BME280;59083;47.974;21.722;2023-01-28T16:26:39;100814.00;;;1.87;81.97
71299;BME280;59083;47.974;21.722;2023-01-28T16:29:40;100825.12;;;1.80;82.54
71299;BME280;59083;47.974;21.722;2023-01-28T16:32:42;100826.31;;;1.76;82.22
71299;BME280;59083;47.974;21.722;2023-01-28T16:35:43;100817.34;;;1.78;82.07
71299;BME280;59083;47.974;21.722;2023-01-28T16:38:45;100835.53;;;1.70;82.05
71299;BME280;59083;47.974;21.722;2023-01-28T16:41:46;100831.22;;;1.69;82.99
71299;BME280;59083;47.974;21.722;2023-01-28T16:44:49;100827.03;;;1.66;82.57
71299;BME280;59083;47.974;21.722;2023-01-28T16:47:51;100832.63;;;1.73;82.20
71299;BME280;59083;47.974;21.722;2023-01-28T16:50:52;100827.13;;;1.54;82.83
71299;BME280;59083;47.974;21.722;2023-01-28T16:53:54;100825.47;;;1.53;82.71
71299;BME280;59083;47.974;21.722;2023-01-28T16:56:55;100836.00;;;1.53;82.81
71299;BME280;59083;47.974;21.722;2023-01-28T16:59:57;100846.97;;;1.47;82.85
71299;BME280;59083;47.974;21.722;2023-01-28T17:02:58;100842.66;;;1.46;82.96
71299;BME280;59083;47.974;21.722;2023-01-28T17:06:00;100847.63;;;1.27;83.78
71299;BME280;59083;47.974;21.722;2023-01-28T17:09:01;100842.16;;;1.18;84.02
71299;BME280;59083;47.974;21.722;2023-01-28T17:12:03;100842.84;;;1.20;83.71
71299;BME280;59083;47.974;21.722;2023-01-28T17:15:05;100850.00;;;1.07;84.45
71299;BME280;59083;47.974;21.722;2023-01-28T17:18:09;100858.53;;;0.98;84.62
71299;BME280;59083;47.974;21.722;2023-01-28T17:21:10;100855.94;;;1.09;84.26
71299;BME280;59083;47.974;21.722;2023-01-28T17:24:12;100867.87;;;1.02;84.63
71299;BME280;59083;47.974;21.722;2023-01-28T17:27:13;100855.91;;;0.98;84.78
71299;BME280;59083;47.974;21.722;2023-01-28T17:30:17;100860.09;;;1.01;84.77
71299;BME280;59083;47.974;21.722;2023-01-28T17:33:19;100860.09;;;1.01;84.42
71299;BME280;59083;47.974;21.722;2023-01-28T17:36:20;100864.97;;;0.94;84.93
71299;BME280;59083;47.974;21.722;2023-01-28T17:39:21;100873.12;;;1.02;84.64